createdAt,value
2023-04-09T00:04:05.453Z,59.50
2023-04-09T00:05:35.515Z,60.75
2023-04-09T00:16:13.735Z,53.97
2023-04-09T00:18:07.918Z,57.75
2023-04-09T00:29:10.004Z,56.95
2023-04-09T00:30:46.794Z,54.25
2023-04-09T00:44:45.931Z,59.80
2023-04-09T00:54:22.996Z,58.85
2023-04-09T01:17:20.536Z,59.50
2023-04-09T01:39:10.469Z,57.33
2023-04-09T01:48:35.324Z,65.10
2023-04-09T02:13:08.073Z,63.58
2023-04-09T02:47:45.984Z,68.82
2023-04-09T02:49:12.096Z,69.22
2023-04-09T02:50:34.756Z,71.82
2023-04-09T02:52:03.205Z,68.25
2023-04-09T02:53:26.460Z,70.35
2023-04-09T02:54:48.113Z,68.70
2023-04-09T02:56:13.106Z,72.78
2023-04-09T02:57:34.405Z,73.47
2023-04-09T02:58:56.730Z,69.50
2023-04-09T03:00:18.452Z,68.78
2023-04-09T03:01:40.978Z,72.53
2023-04-09T03:03:05.009Z,70.28
2023-04-09T03:04:29.576Z,72.45
2023-04-09T03:05:52.012Z,75.03
2023-04-09T03:07:13.754Z,75.43
2023-04-09T03:08:39.044Z,68.40
2023-04-09T03:10:00.189Z,71.25
2023-04-09T03:11:22.789Z,75.18
2023-04-09T03:12:44.973Z,73.85
2023-04-09T03:14:07.460Z,72.28
2023-04-09T03:15:28.634Z,72.57
2023-04-09T03:16:51.192Z,70.55
2023-04-09T03:18:15.873Z,74.53
2023-04-09T03:19:38.266Z,71.90
2023-04-09T03:25:02.512Z,71.53
2023-04-09T03:30:02.749Z,69.80
2023-04-09T03:30:56.037Z,72.07
2023-04-09T03:31:32.935Z,76.30
2023-04-09T03:33:08.180Z,71.63
2023-04-09T03:39:09.413Z,71.47
2023-04-09T04:09:56.261Z,80.15
2023-04-09T04:12:47.228Z,76.35
2023-04-09T04:14:48.778Z,78.75
2023-04-09T04:16:24.155Z,77.97
2023-04-09T04:17:46.454Z,79.25
2023-04-09T04:19:32.609Z,76.28
2023-04-09T04:20:56.332Z,75.32
2023-04-09T04:22:31.523Z,77.15
2023-04-09T04:23:59.562Z,74.50
2023-04-09T04:25:29.325Z,71.25
2023-04-09T04:26:52.484Z,75.85
2023-04-09T04:28:16.448Z,79.00
2023-04-09T04:29:39.187Z,77.78
2023-04-09T04:31:17.401Z,83.18
2023-04-09T04:32:38.969Z,83.03
2023-04-09T04:34:04.908Z,72.78
2023-04-09T04:35:26.570Z,80.07
2023-04-09T04:37:03.562Z,83.53
2023-04-09T04:38:28.203Z,76.07
2023-04-09T04:39:59.338Z,80.05
2023-04-09T04:41:24.618Z,82.25
2023-04-09T04:42:53.566Z,81.07
2023-04-09T04:44:18.012Z,80.07
2023-04-09T04:45:41.364Z,75.63
2023-04-09T04:47:07.317Z,76.78
2023-04-09T04:48:32.231Z,77.80
2023-04-09T04:49:55.095Z,83.32
2023-04-09T04:53:02.923Z,81.53
2023-04-09T04:56:15.796Z,80.43
2023-04-09T04:57:53.827Z,83.93
2023-04-09T04:59:23.020Z,86.82
2023-04-09T05:00:53.927Z,91.10
2023-04-09T05:02:19.237Z,106.97
2023-04-09T05:04:04.728Z,85.88
2023-04-09T05:05:29.581Z,81.70
2023-04-09T05:06:53.209Z,86.00
2023-04-09T05:08:19.949Z,75.50
2023-04-09T05:09:45.725Z,77.53
2023-04-09T05:11:08.228Z,80.45
2023-04-09T05:12:43.422Z,78.68
2023-04-09T05:14:08.063Z,74.97
2023-04-09T05:15:29.188Z,80.45
2023-04-09T05:18:19.221Z,79.72
2023-04-09T05:19:41.961Z,82.28
2023-04-09T05:21:12.123Z,77.63
2023-04-09T05:22:40.314Z,78.33
2023-04-09T05:24:08.489Z,74.25
2023-04-09T05:25:30.904Z,82.00
2023-04-09T05:26:56.244Z,83.20
2023-04-09T05:28:19.410Z,77.43
2023-04-09T05:29:45.722Z,80.72
2023-04-09T05:31:13.267Z,75.95
2023-04-09T05:32:42.383Z,76.70
2023-04-09T05:34:05.136Z,78.97
2023-04-09T05:35:35.358Z,78.00
2023-04-09T05:37:01.113Z,78.43
2023-04-09T05:38:26.942Z,82.45
2023-04-09T05:43:03.129Z,79.97
2023-04-09T05:44:47.017Z,73.60
2023-04-09T05:46:14.344Z,77.60
2023-04-09T05:47:40.031Z,81.68
2023-04-09T05:49:14.457Z,83.22
2023-04-09T05:50:51.465Z,81.20
2023-04-09T05:52:17.267Z,78.43
2023-04-09T05:53:39.878Z,87.78
2023-04-09T05:55:01.331Z,89.85
2023-04-09T05:56:37.993Z,84.55
2023-04-09T05:58:12.911Z,87.57
2023-04-09T05:59:44.501Z,84.45
2023-04-09T06:01:11.687Z,81.53
2023-04-09T06:02:36.333Z,90.30
2023-04-09T06:04:01.807Z,91.32
2023-04-09T06:05:24.794Z,92.75
2023-04-09T06:07:00.284Z,98.10
2023-04-09T06:08:36.460Z,88.07
2023-04-09T06:11:07.040Z,88.88
2023-04-09T06:12:30.100Z,92.10
2023-04-09T06:14:42.801Z,85.03
2023-04-09T06:18:42.769Z,94.80
2023-04-09T06:20:11.077Z,86.80
2023-04-09T06:21:51.330Z,90.88
2023-04-09T06:24:11.198Z,95.60
2023-04-09T06:25:46.417Z,93.82
2023-04-09T06:27:14.287Z,94.68
2023-04-09T06:28:46.756Z,92.65
2023-04-09T06:30:53.458Z,94.32
2023-04-09T06:32:28.395Z,85.05
2023-04-09T06:35:02.844Z,94.47
2023-04-09T06:37:49.685Z,100.72
2023-04-09T06:39:14.172Z,100.95
2023-04-09T06:40:40.695Z,100.28
2023-04-09T06:42:05.627Z,92.03
2023-04-09T06:43:44.465Z,93.60
2023-04-09T06:45:08.873Z,101.90
2023-04-09T06:46:31.733Z,91.20
2023-04-09T06:48:19.282Z,82.28
2023-04-09T06:49:54.327Z,89.72
2023-04-09T06:51:19.474Z,91.22
2023-04-09T06:52:43.206Z,91.65
2023-04-09T06:54:05.940Z,91.80
2023-04-09T06:56:30.397Z,97.82
2023-04-09T06:57:54.132Z,93.63
2023-04-09T06:59:21.963Z,99.53
2023-04-09T07:00:50.184Z,90.95
2023-04-09T07:02:15.794Z,86.85
2023-04-09T07:03:39.036Z,85.15
2023-04-09T07:05:43.197Z,82.65
2023-04-09T07:07:05.555Z,87.88
2023-04-09T07:08:38.510Z,94.22
2023-04-09T07:10:01.726Z,90.90
2023-04-09T07:11:24.437Z,92.22
2023-04-09T07:12:46.949Z,91.65
2023-04-09T07:14:11.884Z,98.97
2023-04-09T07:15:34.461Z,95.88
2023-04-09T07:17:14.384Z,85.13
2023-04-09T07:18:36.575Z,91.72
2023-04-09T07:20:01.954Z,95.75
2023-04-09T07:21:24.163Z,85.20
2023-04-09T07:22:46.391Z,84.50
2023-04-09T07:24:10.342Z,92.90
2023-04-09T07:25:34.940Z,88.75
2023-04-09T07:26:57.577Z,88.20
2023-04-09T07:28:20.027Z,86.30
2023-04-09T07:29:46.134Z,89.85
2023-04-09T07:31:13.391Z,91.90
2023-04-09T07:32:40.436Z,84.82
2023-04-09T07:34:06.348Z,93.88
2023-04-09T07:35:29.009Z,88.55
2023-04-09T07:36:54.119Z,89.35
2023-04-09T07:39:18.853Z,88.55
2023-04-09T07:40:42.815Z,81.43
2023-04-09T07:45:45.226Z,81.85
2023-04-09T07:54:42.645Z,83.45
2023-04-09T07:56:10.001Z,81.22
2023-04-09T07:57:33.742Z,84.82
2023-04-09T07:59:03.088Z,87.28
2023-04-09T08:00:27.481Z,78.57
2023-04-09T08:04:14.452Z,88.10
2023-04-09T08:05:41.899Z,78.90
2023-04-09T08:10:23.926Z,84.10
2023-04-09T08:19:43.270Z,82.68
2023-04-09T08:46:13.071Z,78.90
2023-04-09T08:48:00.287Z,78.30
2023-04-09T08:49:40.967Z,75.15
2023-04-09T08:51:06.642Z,78.20
2023-04-09T08:52:54.602Z,76.15
2023-04-09T08:54:19.944Z,75.40
2023-04-09T08:55:46.843Z,73.80
2023-04-09T08:57:12.621Z,79.28
2023-04-09T08:58:59.688Z,81.25
2023-04-09T09:00:24.476Z,77.28
2023-04-09T09:01:54.573Z,71.35
2023-04-09T09:12:55.780Z,78.25
2023-04-09T09:14:21.454Z,70.55
2023-04-09T09:15:42.989Z,71.55
2023-04-09T09:17:08.679Z,70.78
2023-04-09T09:19:24.955Z,75.50
2023-04-09T09:20:46.744Z,75.63
2023-04-09T09:22:15.695Z,72.25
2023-04-09T09:24:27.658Z,70.00
2023-04-09T09:26:21.330Z,71.35
2023-04-09T09:27:54.844Z,72.55
2023-04-09T09:29:21.540Z,74.10
2023-04-09T09:30:44.714Z,74.25
2023-04-09T09:32:15.048Z,75.28
2023-04-09T09:33:38.130Z,71.95
2023-04-09T09:35:07.381Z,72.65
2023-04-09T09:37:10.771Z,73.20
2023-04-09T09:39:21.279Z,72.10
2023-04-09T09:40:43.926Z,72.53
2023-04-09T09:42:12.191Z,71.15
2023-04-09T09:43:46.970Z,70.57
2023-04-09T09:45:19.842Z,73.82
2023-04-09T09:46:49.180Z,72.47
2023-04-09T09:48:16.212Z,73.72
2023-04-09T09:49:41.158Z,72.80
2023-04-09T09:54:36.816Z,67.40
2023-04-09T09:56:01.772Z,65.13
2023-04-09T09:57:38.023Z,62.28
2023-04-09T09:59:08.979Z,70.35
2023-04-09T10:00:34.941Z,69.43
2023-04-09T10:02:05.282Z,70.72
2023-04-09T10:06:22.579Z,73.40
2023-04-09T10:07:50.943Z,69.60
2023-04-09T10:31:13.483Z,75.22
2023-04-09T10:33:48.716Z,66.70
2023-04-09T10:35:27.625Z,75.10
2023-04-09T10:37:17.201Z,90.05
2023-04-09T10:39:13.773Z,82.88
2023-04-09T10:41:17.286Z,84.35
2023-04-09T10:42:50.887Z,88.35
2023-04-09T10:44:28.225Z,98.07
2023-04-09T10:45:53.687Z,91.75
2023-04-09T10:47:39.739Z,93.45
2023-04-09T10:49:13.809Z,92.28
2023-04-09T10:50:40.418Z,85.78
2023-04-09T10:52:30.832Z,88.07
2023-04-09T10:54:47.277Z,78.07
2023-04-09T10:56:18.123Z,103.15
2023-04-09T11:00:56.286Z,98.43
2023-04-09T11:12:03.974Z,89.45
2023-04-09T11:24:05.503Z,83.05
2023-04-09T12:45:40.827Z,80.00
2023-04-09T12:55:40.410Z,85.03
2023-04-09T13:31:28.093Z,80.85
2023-04-09T13:33:29.879Z,80.22
2023-04-09T13:46:33.856Z,79.25
2023-04-09T14:07:31.022Z,80.60
2023-04-09T14:19:51.640Z,77.43
2023-04-09T14:24:42.763Z,77.07
2023-04-09T14:26:08.241Z,79.03
2023-04-09T14:27:31.077Z,76.93
2023-04-09T14:28:53.630Z,77.75
2023-04-09T14:41:19.317Z,81.30
2023-04-09T14:43:07.884Z,86.10
2023-04-09T14:44:33.527Z,88.60
2023-04-09T14:47:23.296Z,81.05
2023-04-09T15:15:05.226Z,88.78
2023-04-09T15:19:23.082Z,86.43
2023-04-09T15:20:48.073Z,87.72
2023-04-09T15:22:09.946Z,88.00
2023-04-09T15:27:17.176Z,92.13
2023-04-09T15:28:39.600Z,94.47
2023-04-09T15:30:02.148Z,91.78
2023-04-09T15:31:24.370Z,103.05
2023-04-09T15:32:59.124Z,99.93
2023-04-09T15:34:55.997Z,100.20
2023-04-09T15:36:18.460Z,93.75
2023-04-09T15:38:37.538Z,92.13
2023-04-09T15:40:21.649Z,92.80
2023-04-09T15:41:43.818Z,100.72
2023-04-09T15:43:05.852Z,105.30
2023-04-09T15:44:28.520Z,99.18
2023-04-09T15:45:51.624Z,100.75
2023-04-09T15:47:14.140Z,100.68
2023-04-09T15:48:36.788Z,95.47
2023-04-09T15:50:05.442Z,91.30
2023-04-09T15:51:31.429Z,91.03
2023-04-09T15:52:56.395Z,79.38
2023-04-09T15:54:19.475Z,88.40
2023-04-09T15:55:44.776Z,86.20
2023-04-09T15:57:06.191Z,88.43
2023-04-09T15:58:29.040Z,90.55
2023-04-09T15:59:52.364Z,85.13
2023-04-09T16:01:55.267Z,92.28
2023-04-09T16:03:18.081Z,90.18
2023-04-09T16:04:43.687Z,89.30
2023-04-09T16:06:09.262Z,90.90
2023-04-09T16:07:32.025Z,93.85
2023-04-09T16:09:12.156Z,89.43
2023-04-09T16:10:53.925Z,86.38
2023-04-09T16:12:19.094Z,92.72
2023-04-09T16:13:42.428Z,87.00
2023-04-09T16:15:04.935Z,94.10
2023-04-09T16:16:27.358Z,89.25
2023-04-09T16:17:55.146Z,89.57
2023-04-09T16:19:18.433Z,94.15
2023-04-09T16:20:40.944Z,96.35
2023-04-09T16:22:07.614Z,106.78
2023-04-09T16:23:30.846Z,89.63
2023-04-09T16:24:56.497Z,98.65
2023-04-09T16:26:58.167Z,92.45
2023-04-09T16:28:22.001Z,91.00
2023-04-09T16:29:47.513Z,95.10
2023-04-09T16:31:23.763Z,100.07
2023-04-09T16:32:46.290Z,96.38
2023-04-09T16:37:36.788Z,90.78
2023-04-09T16:48:44.483Z,84.38
2023-04-09T17:42:00.989Z,90.72
2023-04-09T17:50:57.536Z,88.00
2023-04-09T17:54:16.210Z,95.25
2023-04-09T17:55:53.362Z,94.97
2023-04-09T17:57:17.313Z,88.97
2023-04-09T17:58:40.127Z,95.85
2023-04-09T18:00:05.671Z,93.38
2023-04-09T18:01:35.794Z,85.40
2023-04-09T18:02:59.075Z,91.97
2023-04-09T18:07:26.046Z,88.78
2023-04-09T18:08:51.614Z,92.82
2023-04-09T18:13:32.859Z,83.13
2023-04-09T18:14:56.955Z,78.45
2023-04-09T18:17:27.065Z,95.18
2023-04-09T18:23:19.206Z,82.55
2023-04-09T18:25:48.432Z,77.43
2023-04-09T18:27:12.832Z,77.95
2023-04-09T18:28:36.186Z,91.68
2023-04-09T18:31:27.699Z,88.40
2023-04-09T18:34:08.486Z,78.88
2023-04-09T18:35:46.330Z,77.78
2023-04-09T18:37:10.161Z,84.28
2023-04-09T18:39:57.591Z,84.78
2023-04-09T18:42:15.541Z,81.70
2023-04-09T18:44:08.581Z,88.88
2023-04-09T18:45:38.169Z,85.03
2023-04-09T18:55:33.603Z,87.90
2023-04-09T18:57:02.242Z,93.88
2023-04-09T18:58:25.211Z,93.43
2023-04-09T19:02:51.271Z,91.68
2023-04-09T19:51:25.517Z,76.13
2023-04-09T19:52:52.514Z,84.97
2023-04-09T19:54:18.187Z,88.15
2023-04-09T19:59:09.507Z,92.63
2023-04-09T20:00:57.143Z,85.22
2023-04-09T20:02:42.378Z,84.60
2023-04-09T20:04:10.233Z,92.95
2023-04-09T20:09:24.301Z,82.80
2023-04-09T20:49:09.905Z,88.15
2023-04-09T21:23:58.945Z,96.18
2023-04-09T21:26:17.088Z,97.35
2023-04-09T21:30:53.719Z,101.30
2023-04-09T21:32:58.883Z,103.15
2023-04-09T21:37:19.492Z,95.72
2023-04-09T21:39:02.414Z,101.88
2023-04-09T21:41:51.435Z,93.72
2023-04-09T21:43:31.115Z,95.57
2023-04-09T21:45:01.638Z,90.70
2023-04-09T21:46:47.416Z,98.63
2023-04-09T21:48:27.612Z,98.57
2023-04-09T21:50:02.439Z,95.80
2023-04-09T21:51:37.391Z,97.20
2023-04-09T21:53:06.509Z,95.18
2023-04-09T21:54:35.983Z,102.95
2023-04-09T21:56:04.197Z,101.30
2023-04-09T21:57:46.060Z,99.50
2023-04-09T21:59:39.157Z,100.28
2023-04-09T22:01:22.656Z,98.30
2023-04-09T22:02:54.172Z,98.30
2023-04-09T22:04:17.265Z,98.80
2023-04-09T22:05:42.178Z,93.38
2023-04-09T22:10:14.186Z,102.70
2023-04-09T22:11:53.100Z,97.70
2023-04-09T22:13:23.121Z,100.10
2023-04-09T22:14:46.240Z,104.97
2023-04-09T22:16:17.580Z,99.25
2023-04-09T22:17:44.826Z,101.88
2023-04-09T22:19:09.646Z,106.00
2023-04-09T22:20:32.771Z,103.38
2023-04-09T22:21:59.081Z,97.30
2023-04-09T22:23:21.782Z,98.68
2023-04-09T22:24:49.641Z,96.80
2023-04-09T22:26:16.598Z,102.07
2023-04-09T22:28:06.037Z,104.55
2023-04-09T22:29:37.341Z,91.05
2023-04-09T22:31:03.721Z,99.38
2023-04-09T22:32:43.506Z,98.60
2023-04-09T22:34:21.192Z,96.18
2023-04-09T22:35:49.197Z,102.90
2023-04-09T22:37:12.421Z,110.68
2023-04-09T22:38:38.592Z,94.32
2023-04-09T22:40:19.388Z,99.82
2023-04-09T22:41:44.824Z,100.45
2023-04-09T22:43:10.971Z,110.57
2023-04-09T22:44:40.445Z,101.65
2023-04-09T22:46:12.167Z,108.32
2023-04-09T22:51:14.443Z,107.15
2023-04-09T22:52:40.846Z,103.50
2023-04-09T22:55:44.527Z,109.35
2023-04-09T22:57:10.011Z,106.78
2023-04-09T22:58:32.314Z,108.47
2023-04-09T23:00:22.383Z,104.45
2023-04-09T23:01:49.239Z,106.25
2023-04-09T23:03:12.543Z,110.70
2023-04-09T23:04:56.025Z,109.90
2023-04-09T23:06:19.307Z,98.97
2023-04-09T23:07:48.904Z,105.30
2023-04-09T23:09:56.705Z,108.32
2023-04-09T23:11:27.413Z,105.90
2023-04-09T23:13:24.117Z,105.70
2023-04-09T23:16:05.692Z,105.55
2023-04-09T23:17:51.559Z,106.65
2023-04-09T23:19:56.214Z,106.13
2023-04-09T23:21:22.121Z,105.93
2023-04-09T23:26:03.080Z,107.55
2023-04-09T23:27:32.430Z,107.30
2023-04-09T23:29:09.650Z,104.50
2023-04-09T23:30:32.536Z,103.93
2023-04-09T23:35:03.123Z,108.45
2023-04-09T23:39:43.949Z,108.78
2023-04-09T23:41:22.469Z,107.13
2023-04-09T23:49:57.069Z,109.97
2023-04-09T23:52:15.101Z,117.20
2023-04-09T23:54:07.640Z,107.68
2023-04-09T23:55:41.318Z,114.57
2023-04-09T23:57:22.039Z,107.38
2023-04-09T23:59:47.511Z,114.95
